Time;durP1;ratioP1;P1;durP2;ratioP2;P2;SDS_P1;SDS_P2;PMS_P1;PMS_P2;Temp;Humidity;BMP_temperature;BMP_pressure;BME280_temperature;BME280_humidity;BME280_pressure;Samples;Min_cycle;Max_cycle;Signal;HPM_P1;HPM_P2
2020/12/04 00:02:24;;;;;;;26.83;11.85;;;;;;;1.65;67.04;99259.47;5091591;28;20321;-72
2020/12/04 00:04:51;;;;;;;23.50;12.27;;;;;;;1.65;67.13;99233.63;5091127;28;20115;-74
2020/12/04 00:07:17;;;;;;;33.35;17.70;;;;;;;1.65;67.00;99241.38;5095225;28;20080;-73
2020/12/04 00:09:43;;;;;;;25.00;11.15;;;;;;;1.64;67.06;99229.34;5095345;28;20086;-73
2020/12/04 00:12:09;;;;;;;30.17;13.93;;;;;;;1.61;67.31;99240.59;5095551;28;20089;-73
2020/12/04 00:14:35;;;;;;;32.92;17.42;;;;;;;1.60;67.37;99246.63;5094988;28;20483;-72
2020/12/04 00:17:01;;;;;;;29.35;15.20;;;;;;;1.62;67.35;99254.34;5095307;28;20139;-72
2020/12/04 00:19:28;;;;;;;17.13;9.32;;;;;;;1.61;67.27;99244.91;5094995;28;20074;-72
2020/12/04 00:21:55;;;;;;;27.27;14.90;;;;;;;1.64;67.23;99239.66;5081790;28;20076;-73
2020/12/04 00:24:21;;;;;;;23.92;11.73;;;;;;;1.65;66.98;99231.03;5074896;28;20460;-72
2020/12/04 00:26:47;;;;;;;26.77;12.23;;;;;;;1.65;67.24;99242.22;5094930;28;20132;-71
2020/12/04 00:29:13;;;;;;;23.65;11.35;;;;;;;1.68;67.03;99236.19;5094993;28;20087;-73
2020/12/04 00:31:39;;;;;;;25.15;12.88;;;;;;;1.67;66.99;99229.31;5094919;28;20068;-72
2020/12/04 00:34:05;;;;;;;31.70;15.73;;;;;;;1.69;66.94;99238.72;5094784;28;20088;-74
2020/12/04 00:36:31;;;;;;;38.00;14.75;;;;;;;1.71;67.05;99241.28;5094392;28;20087;-72
2020/12/04 00:38:58;;;;;;;42.63;17.02;;;;;;;1.71;67.10;99239.56;5094772;28;20534;-72
2020/12/04 00:41:25;;;;;;;28.90;14.25;;;;;;;1.74;66.82;99242.06;5094971;28;20083;-73
2020/12/04 00:43:52;;;;;;;30.17;13.98;;;;;;;1.75;66.75;99230.00;5094654;28;20052;-72
2020/12/04 00:46:18;;;;;;;30.25;12.15;;;;;;;1.77;66.71;99230.81;5094387;28;20091;-73
2020/12/04 00:48:44;;;;;;;17.67;8.88;;;;;;;1.78;66.73;99227.34;5094825;28;20083;-74
2020/12/04 00:51:11;;;;;;;36.33;14.60;;;;;;;1.78;66.67;99222.19;5094450;28;20128;-73
2020/12/04 00:53:37;;;;;;;24.30;10.90;;;;;;;1.79;66.78;99227.31;5094587;28;20048;-73
2020/12/04 00:56:04;;;;;;;25.23;11.50;;;;;;;1.80;66.32;99217.84;5094562;28;20044;-72
2020/12/04 00:58:32;;;;;;;27.15;13.32;;;;;;;1.78;66.62;99202.38;5094379;28;20106;-71
2020/12/04 01:00:59;;;;;;;31.83;14.65;;;;;;;1.82;66.61;99219.50;5094405;28;20040;-72
2020/12/04 01:03:25;;;;;;;30.77;12.93;;;;;;;1.87;66.51;99213.41;5094357;28;20142;-72
2020/12/04 01:05:51;;;;;;;21.73;11.38;;;;;;;1.88;66.36;99197.88;5094266;28;20145;-71
2020/12/04 01:08:17;;;;;;;28.10;13.00;;;;;;;1.88;66.50;99208.22;5094115;28;20082;-72
2020/12/04 01:10:43;;;;;;;29.50;14.05;;;;;;;1.90;66.36;99213.34;5093801;28;20052;-71
2020/12/04 01:13:10;;;;;;;23.00;11.63;;;;;;;1.92;66.21;99215.03;5074051;28;20084;-73
2020/12/04 01:15:36;;;;;;;33.75;15.10;;;;;;;1.91;66.13;99235.75;5084948;28;20072;-73
2020/12/04 01:18:03;;;;;;;33.38;16.35;;;;;;;1.92;66.17;99222.78;5093140;28;20084;-73
2020/12/04 01:20:30;;;;;;;29.50;13.35;;;;;;;1.95;66.01;99224.44;5093831;28;20087;-73
2020/12/04 01:22:56;;;;;;;32.58;14.82;;;;;;;1.95;65.94;99219.28;5094054;28;20084;-72
2020/12/04 01:25:22;;;;;;;35.08;16.23;;;;;;;1.93;66.00;99216.72;5093399;28;20086;-71
2020/12/04 01:27:48;;;;;;;19.35;9.60;;;;;;;1.93;65.83;99193.47;5093991;28;20126;-71
2020/12/04 01:30:15;;;;;;;29.17;13.90;;;;;;;1.93;65.57;99190.03;5093900;28;20048;-72
2020/12/04 01:32:41;;;;;;;23.58;11.85;;;;;;;1.92;65.71;99196.94;5093793;28;20105;-71
2020/12/04 01:35:07;;;;;;;34.47;15.23;;;;;;;1.92;65.89;99188.34;5093927;28;20067;-72
2020/12/04 01:37:33;;;;;;;31.52;15.88;;;;;;;1.92;65.86;99199.53;5093918;28;20083;-72
2020/12/04 01:40:00;;;;;;;23.67;12.15;;;;;;;1.94;65.71;99187.41;5093609;28;20123;-73
2020/12/04 01:42:26;;;;;;;31.15;14.60;;;;;;;1.90;66.03;99170.28;5093931;28;20082;-73
2020/12/04 01:44:53;;;;;;;22.02;8.70;;;;;;;1.90;65.67;99175.44;5094551;28;20072;-72
2020/12/04 01:47:20;;;;;;;22.67;12.93;;;;;;;1.91;65.66;99166.81;5093599;28;20079;-74
2020/12/04 01:49:46;;;;;;;37.83;14.73;;;;;;;1.91;65.76;99156.47;5093584;28;20079;-73
2020/12/04 01:52:14;;;;;;;35.47;15.43;;;;;;;1.93;65.60;99153.84;5094101;28;20041;-73
2020/12/04 01:54:41;;;;;;;17.45;10.57;;;;;;;1.90;65.82;99139.25;5093909;28;20067;-73
2020/12/04 01:57:08;;;;;;;28.83;14.18;;;;;;;1.88;65.82;99141.03;5093633;28;20093;-73
2020/12/04 01:59:34;;;;;;;27.65;12.43;;;;;;;1.87;65.83;99133.28;5093140;28;20085;-73
2020/12/04 02:02:09;;;;;;;39.25;18.02;;;;;;;1.88;65.81;99135.00;5092980;28;20568;-73
2020/12/04 02:04:36;;;;;;;38.45;14.88;;;;;;;1.90;65.72;99128.06;5093079;28;20083;-72
2020/12/04 02:07:06;;;;;;;28.15;11.15;;;;;;;1.87;65.92;99128.97;5093000;28;20079;-73
2020/12/04 02:09:35;;;;;;;29.60;14.00;;;;;;;1.88;65.87;99141.03;5093023;28;20391;-72
2020/12/04 02:12:04;;;;;;;26.88;12.70;;;;;;;1.87;66.02;99141.88;5092892;28;20083;-73
2020/12/04 02:14:32;;;;;;;24.20;11.27;;;;;;;1.87;65.83;99147.06;5092762;28;20134;-72
2020/12/04 02:17:01;;;;;;;28.65;14.55;;;;;;;1.87;65.73;99134.13;5093078;28;20047;-73
2020/12/04 02:19:27;;;;;;;29.42;13.70;;;;;;;1.86;65.99;99140.19;5092616;28;20044;-72
2020/12/04 02:21:54;;;;;;;31.70;14.52;;;;;;;1.84;66.07;99119.53;5092819;28;20127;-72
2020/12/04 02:24:25;;;;;;;29.63;14.38;;;;;;;1.86;65.70;99139.34;5092680;28;20499;-73
2020/12/04 02:26:52;;;;;;;30.73;15.07;;;;;;;1.84;65.87;99144.53;5092640;28;20055;-72
2020/12/04 02:29:18;;;;;;;33.45;15.40;;;;;;;1.84;65.96;99144.53;5092314;28;20430;-72
2020/12/04 02:31:44;;;;;;;17.83;10.48;;;;;;;1.86;65.93;99144.50;5092725;28;20040;-72
2020/12/04 02:34:11;;;;;;;22.85;12.40;;;;;;;1.85;66.01;99141.06;5092657;28;20082;-72
2020/12/04 02:36:37;;;;;;;33.78;16.70;;;;;;;1.85;65.83;99141.06;5092382;28;20048;-74
2020/12/04 02:39:04;;;;;;;34.03;15.30;;;;;;;1.86;66.04;99136.75;5092458;28;20098;-73
2020/12/04 02:41:30;;;;;;;21.27;10.80;;;;;;;1.85;65.96;99117.81;5092383;28;20102;-73
2020/12/04 02:43:56;;;;;;;20.60;10.20;;;;;;;1.81;66.00;99123.94;5092676;28;20048;-73
2020/12/04 02:46:22;;;;;;;27.65;12.82;;;;;;;1.76;66.17;99120.59;5091673;28;20044;-73
2020/12/04 02:48:49;;;;;;;33.75;15.63;;;;;;;1.73;66.23;99111.19;5092395;28;20044;-73
2020/12/04 02:51:15;;;;;;;25.80;13.57;;;;;;;1.73;66.16;99107.75;5092453;28;20083;-72
2020/12/04 02:53:41;;;;;;;23.42;12.30;;;;;;;1.72;66.11;99114.66;5092578;28;20088;-73
2020/12/04 02:56:08;;;;;;;17.02;10.63;;;;;;;1.67;66.16;99108.72;5092329;28;20495;-72
2020/12/04 02:58:34;;;;;;;23.80;10.88;;;;;;;1.66;66.22;99109.59;5092052;28;20095;-72
2020/12/04 03:01:00;;;;;;;26.77;13.10;;;;;;;1.64;66.26;99106.19;5092126;28;20082;-73
2020/12/04 03:03:26;;;;;;;30.92;13.63;;;;;;;1.67;66.24;99105.31;5092340;28;20075;-73
2020/12/04 03:05:53;;;;;;;29.55;11.52;;;;;;;1.64;66.21;99101.03;5091902;28;20119;-73
2020/12/04 03:08:19;;;;;;;29.98;12.23;;;;;;;1.64;66.35;99089.84;5091866;28;20048;-72
2020/12/04 03:10:45;;;;;;;39.67;15.77;;;;;;;1.62;66.24;99091.59;5092114;28;20127;-73
2020/12/04 03:13:12;;;;;;;24.48;12.90;;;;;;;1.62;66.25;99097.63;5091932;28;20135;-72
2020/12/04 03:15:38;;;;;;;24.15;12.45;;;;;;;1.63;66.38;99101.91;5091924;28;20071;-72
2020/12/04 03:18:04;;;;;;;31.67;11.55;;;;;;;1.64;66.31;99095.84;5091831;28;20548;-72
2020/12/04 03:20:31;;;;;;;23.15;12.32;;;;;;;1.63;66.49;99096.72;5091380;28;20083;-73
2020/12/04 03:22:57;;;;;;;32.60;16.77;;;;;;;1.66;66.28;99080.31;5092162;28;20471;-70
2020/12/04 03:25:23;;;;;;;31.67;15.43;;;;;;;1.70;66.39;99063.91;5091844;28;20581;-72
2020/12/04 03:27:49;;;;;;;26.77;14.43;;;;;;;1.72;65.98;99067.28;5091384;28;20080;-72
2020/12/04 03:30:16;;;;;;;38.65;15.25;;;;;;;1.72;66.15;99070.72;5091520;28;20121;-72
2020/12/04 03:32:42;;;;;;;33.58;15.15;;;;;;;1.69;66.37;99083.72;5091892;28;20044;-72
2020/12/04 03:35:08;;;;;;;16.35;7.15;;;;;;;1.70;66.44;99085.41;5091322;28;20522;-71
2020/12/04 03:37:34;;;;;;;25.55;13.07;;;;;;;1.68;66.48;99074.25;5091884;28;20080;-72
2020/12/04 03:40:01;;;;;;;28.08;12.38;;;;;;;1.69;66.17;99080.28;5091795;28;20133;-72
2020/12/04 03:42:27;;;;;;;22.17;12.60;;;;;;;1.65;66.17;99070.88;5095919;28;20139;-72
2020/12/04 03:44:53;;;;;;;31.88;16.20;;;;;;;1.64;66.34;99059.69;5095681;28;20130;-72
2020/12/04 03:47:20;;;;;;;34.63;14.80;;;;;;;1.62;66.24;99071.78;5095798;28;20083;-72
2020/12/04 03:49:46;;;;;;;33.85;15.10;;;;;;;1.61;66.26;99064.06;5095230;28;20139;-72
2020/12/04 03:52:12;;;;;;;19.92;9.55;;;;;;;1.63;66.37;99044.22;5095810;28;20486;-72
2020/12/04 03:54:39;;;;;;;21.90;11.57;;;;;;;1.61;66.42;99071.81;5095655;28;20055;-72
2020/12/04 03:57:05;;;;;;;27.90;14.80;;;;;;;1.57;66.36;99068.47;5095547;28;20529;-73
2020/12/04 03:59:31;;;;;;;30.40;13.52;;;;;;;1.56;66.37;99048.69;5095320;28;20162;-71
2020/12/04 04:01:57;;;;;;;23.10;11.82;;;;;;;1.56;66.48;99061.59;5095419;28;20070;-72
2020/12/04 04:04:24;;;;;;;24.60;13.85;;;;;;;1.53;66.47;99069.41;5095193;28;20491;-71
2020/12/04 04:06:50;;;;;;;22.25;10.65;;;;;;;1.53;66.25;99051.34;5095201;28;20123;-71
2020/12/04 04:09:16;;;;;;;36.70;17.98;;;;;;;1.49;66.48;99058.28;5095350;28;20083;-72
2020/12/04 04:11:43;;;;;;;26.35;12.18;;;;;;;1.50;66.39;99053.97;5074898;28;20044;-72
2020/12/04 04:14:09;;;;;;;29.95;14.10;;;;;;;1.48;66.71;99054.00;5075001;28;20534;-72
2020/12/04 04:16:35;;;;;;;19.55;10.38;;;;;;;1.49;66.28;99055.72;5093765;28;20075;-72
2020/12/04 04:19:01;;;;;;;21.75;10.68;;;;;;;1.51;66.67;99069.44;5095536;28;20125;-72
2020/12/04 04:21:28;;;;;;;20.65;9.98;;;;;;;1.49;66.64;99058.28;5094728;28;20083;-71
2020/12/04 04:23:54;;;;;;;31.13;13.65;;;;;;;1.50;66.51;99057.41;5095054;28;20127;-71
2020/12/04 04:26:21;;;;;;;21.60;10.63;;;;;;;1.51;66.53;99053.94;5094822;28;20122;-71
2020/12/04 04:28:47;;;;;;;27.42;13.20;;;;;;;1.50;66.53;99060.00;5094822;28;20075;-71
2020/12/04 04:31:13;;;;;;;27.83;12.52;;;;;;;1.51;66.69;99061.69;5094961;28;20495;-71
2020/12/04 04:33:40;;;;;;;23.33;11.25;;;;;;;1.52;66.53;99060.81;5095126;28;20052;-71
2020/12/04 04:36:07;;;;;;;25.48;12.30;;;;;;;1.52;66.71;99055.66;5095261;28;20098;-71
2020/12/04 04:38:34;;;;;;;24.75;10.80;;;;;;;1.55;66.59;99043.53;5094897;28;20048;-71
2020/12/04 04:41:00;;;;;;;28.00;14.05;;;;;;;1.58;66.55;99043.47;5094776;28;20095;-71
2020/12/04 04:43:27;;;;;;;33.15;14.63;;;;;;;1.60;66.53;99036.53;5094577;28;20082;-72
2020/12/04 04:45:54;;;;;;;31.50;14.88;;;;;;;1.62;66.44;99045.09;5094766;28;20048;-71
2020/12/04 04:48:23;;;;;;;15.50;7.72;;;;;;;1.64;66.31;99033.84;5094426;28;20044;-72
2020/12/04 04:50:50;;;;;;;27.70;13.25;;;;;;;1.64;66.61;99054.53;5088714;28;20052;-71
2020/12/04 04:53:17;;;;;;;30.98;14.98;;;;;;;1.64;66.66;99046.78;5075323;28;20080;-73
2020/12/04 04:55:44;;;;;;;35.17;14.88;;;;;;;1.66;66.38;99052.75;5086116;28;20044;-71
2020/12/04 04:58:10;;;;;;;33.38;14.43;;;;;;;1.67;66.26;99048.47;5095114;28;20135;-71
2020/12/04 05:00:37;;;;;;;24.90;13.50;;;;;;;1.67;66.26;99048.47;5095548;28;20133;-71
2020/12/04 05:03:04;;;;;;;32.45;15.77;;;;;;;1.69;66.46;99047.53;5095416;28;20083;-71
2020/12/04 05:05:43;;;;;;;20.48;10.07;;;;;;;1.66;66.45;99063.09;5094388;28;20055;-71
2020/12/04 05:08:11;;;;;;;33.50;16.13;;;;;;;1.66;66.58;99072.56;5094641;28;20055;-70
2020/12/04 05:10:37;;;;;;;32.83;14.43;;;;;;;1.66;66.50;99064.81;5093943;28;20556;-71
2020/12/04 05:13:05;;;;;;;30.85;13.70;;;;;;;1.66;66.46;99072.56;5094180;28;20123;-71
2020/12/04 05:15:32;;;;;;;31.75;15.13;;;;;;;1.65;66.68;99071.72;5093900;28;20048;-70
2020/12/04 05:18:07;;;;;;;30.45;16.80;;;;;;;1.64;66.87;99058.84;5094309;28;20072;-72
2020/12/04 05:20:34;;;;;;;35.60;17.05;;;;;;;1.68;66.42;99050.16;5093326;28;20467;-71
2020/12/04 05:23:01;;;;;;;31.85;16.27;;;;;;;1.67;66.68;99053.63;5094042;28;20052;-71
2020/12/04 05:25:33;;;;;;;29.27;15.18;;;;;;;1.68;66.63;99050.16;5093830;28;20040;-72
2020/12/04 05:28:08;;;;;;;32.28;13.10;;;;;;;1.68;66.74;99051.00;5094062;28;20075;-72
2020/12/04 05:30:35;;;;;;;29.27;13.45;;;;;;;1.69;66.62;99041.53;5093710;28;20052;-72
2020/12/04 05:33:02;;;;;;;26.63;13.82;;;;;;;1.70;66.62;99058.72;5093597;28;20557;-71
2020/12/04 05:35:30;;;;;;;25.90;11.82;;;;;;;1.72;66.65;99042.31;5093572;28;20080;-72
2020/12/04 05:38:14;;;;;;;16.40;9.15;;;;;;;1.73;66.79;99048.31;5094019;28;20040;-71
2020/12/04 05:40:42;;;;;;;26.55;10.35;;;;;;;1.73;66.44;99049.19;5093623;28;20051;-71
2020/12/04 05:43:09;;;;;;;34.72;15.73;;;;;;;1.72;66.73;99057.81;5093578;28;20503;-72
2020/12/04 05:45:35;;;;;;;23.90;12.18;;;;;;;1.76;66.73;99058.59;5093533;28;20076;-70
2020/12/04 05:48:02;;;;;;;22.45;11.50;;;;;;;1.79;66.61;99061.09;5093241;28;20090;-71
2020/12/04 05:50:28;;;;;;;31.73;14.85;;;;;;;1.80;66.61;99060.22;5092984;28;20080;-72
2020/12/04 05:52:54;;;;;;;22.40;11.13;;;;;;;1.82;66.43;99061.88;5093596;28;20044;-73
2020/12/04 05:55:20;;;;;;;33.58;12.20;;;;;;;1.82;66.51;99048.09;5093359;28;20076;-71
2020/12/04 05:57:50;;;;;;;27.40;12.73;;;;;;;1.82;66.35;99059.28;5093159;28;20468;-71
2020/12/04 06:00:17;;;;;;;27.30;13.55;;;;;;;1.82;66.58;99045.53;5093120;28;20036;-71
2020/12/04 06:02:44;;;;;;;14.38;6.78;;;;;;;1.82;66.51;99040.34;5092976;28;20072;-71
2020/12/04 06:05:11;;;;;;;23.50;12.73;;;;;;;1.84;66.42;99038.59;5092935;28;20082;-71
2020/12/04 06:07:39;;;;;;;29.33;15.10;;;;;;;1.87;66.48;99046.25;5093181;28;20128;-72
2020/12/04 06:10:06;;;;;;;21.63;11.48;;;;;;;1.91;66.32;99047.06;5092862;28;20109;-72
2020/12/04 06:12:33;;;;;;;19.25;11.02;;;;;;;1.89;66.24;99054.88;5092494;28;20098;-72
2020/12/04 06:15:23;;;;;;;26.35;12.93;;;;;;;1.88;66.56;99047.16;5092740;28;20048;-72
2020/12/04 06:17:50;;;;;;;28.23;13.80;;;;;;;1.91;66.19;99047.91;5092257;28;20051;-72
2020/12/04 06:20:21;;;;;;;21.73;9.75;;;;;;;1.91;66.26;99050.50;5092407;28;20479;-71
2020/12/04 06:23:03;;;;;;;;;;;;;;;1.98;65.92;99058.97;5090650;28;20147;-71
2020/12/04 06:25:55;;;;;;;29.83;12.30;;;;;;;1.88;66.46;99063.50;5088500;28;19920;-72
2020/12/04 06:28:23;;;;;;;21.60;8.88;;;;;;;1.91;66.49;99078.94;5086410;28;20048;-71
2020/12/04 06:30:59;;;;;;;22.25;10.90;;;;;;;1.92;66.18;99072.88;5091826;28;20556;-71
2020/12/04 06:33:33;;;;;;;26.50;11.48;;;;;;;1.92;66.32;99078.03;5091832;28;20499;-72
2020/12/04 06:36:00;;;;;;;22.85;9.73;;;;;;;1.94;66.33;99091.78;5089548;28;20040;-72
2020/12/04 06:38:43;;;;;;;28.98;13.88;;;;;;;1.93;66.31;99072.00;5088665;28;20048;-72
2020/12/04 06:41:25;;;;;;;28.55;14.15;;;;;;;1.93;66.25;99081.47;5089920;28;20044;-71
2020/12/04 06:43:53;;;;;;;21.38;10.13;;;;;;;1.97;66.08;99089.13;5089310;28;20530;-72
2020/12/04 06:46:40;;;;;;;24.13;12.20;;;;;;;1.94;66.43;99081.44;5089520;28;20121;-71
2020/12/04 06:49:22;;;;;;;21.58;12.18;;;;;;;1.94;66.06;99091.78;5090046;28;20048;-72
2020/12/04 06:51:59;;;;;;;14.43;8.82;;;;;;;1.90;66.17;99076.38;5090671;28;20135;-72
2020/12/04 06:54:26;;;;;;;25.60;12.13;;;;;;;1.92;66.23;99085.81;5090767;28;20056;-70
2020/12/04 06:56:53;;;;;;;26.55;14.52;;;;;;;1.96;66.25;99073.66;5084382;28;20472;-70
2020/12/04 06:59:29;;;;;;;17.45;8.85;;;;;;;1.97;66.22;99083.09;5078434;28;20040;-72
2020/12/04 07:02:11;;;;;;;27.13;14.30;;;;;;;1.97;66.35;99088.28;5090827;28;20472;-72
2020/12/04 07:04:40;;;;;;;32.55;15.80;;;;;;;2.01;66.16;99079.56;5088162;28;20105;-70
2020/12/04 07:07:09;;;;;;;30.92;13.88;;;;;;;2.04;66.04;99070.00;5088596;28;20131;-70
2020/12/04 07:09:36;;;;;;;24.33;12.25;;;;;;;2.06;66.23;99083.75;5088412;28;20455;-71
2020/12/04 07:12:04;;;;;;;19.42;9.30;;;;;;;2.08;65.99;99074.25;5089267;28;20131;-70
2020/12/04 07:14:31;;;;;;;32.85;14.27;;;;;;;2.12;66.12;99083.63;5088880;28;20080;-71
2020/12/04 07:16:57;;;;;;;25.00;10.80;;;;;;;2.16;65.97;99084.41;5088803;28;20075;-71
2020/12/04 07:19:26;;;;;;;18.95;9.05;;;;;;;2.19;65.99;99073.13;5088771;28;20090;-71
2020/12/04 07:21:53;;;;;;;23.67;11.93;;;;;;;2.19;65.98;99073.97;5082831;28;20052;-69
2020/12/04 07:24:19;;;;;;;22.52;12.02;;;;;;;2.19;66.04;99073.13;5086655;28;20131;-69
2020/12/04 07:26:51;;;;;;;27.17;13.48;;;;;;;2.24;65.81;99081.63;5089256;28;20048;-70
2020/12/04 07:29:18;;;;;;;29.50;13.73;;;;;;;2.27;65.76;99081.53;5087564;28;20293;-70
2020/12/04 07:31:46;;;;;;;25.08;12.75;;;;;;;2.26;65.80;99074.69;5089355;28;20052;-71
2020/12/04 07:34:13;;;;;;;28.75;12.38;;;;;;;2.31;65.64;99078.03;5089513;28;20127;-71
2020/12/04 07:36:48;;;;;;;25.73;12.77;;;;;;;2.33;65.81;99078.84;5088604;28;20095;-70
2020/12/04 07:39:22;;;;;;;28.25;10.27;;;;;;;2.37;65.33;99083.91;5088457;28;20127;-71
2020/12/04 07:41:49;;;;;;;26.55;14.45;;;;;;;2.40;65.31;99072.63;5068232;28;20086;-70
2020/12/04 07:44:15;;;;;;;24.83;11.93;;;;;;;2.40;65.40;99093.31;5068171;28;20044;-70
2020/12/04 07:46:42;;;;;;;16.98;8.13;;;;;;;2.43;65.28;99072.53;5088502;28;20054;-71
2020/12/04 07:49:10;;;;;;;13.80;7.70;;;;;;;2.45;65.45;99073.34;5088351;28;20537;-70
2020/12/04 07:51:41;;;;;;;21.25;9.75;;;;;;;2.47;65.37;99063.81;5088614;28;20087;-71
2020/12/04 07:54:21;;;;;;;18.13;9.23;;;;;;;2.48;65.17;99050.00;5088705;28;20473;-71
2020/12/04 07:56:52;;;;;;;21.83;9.93;;;;;;;2.45;65.33;99047.50;5088113;28;20080;-73
2020/12/04 07:59:24;;;;;;;;;;;;;;;2.57;65.02;99067.91;5089701;28;20084;-71
2020/12/04 08:01:51;;;;;;;27.88;15.15;;;;;;;2.48;65.28;99055.16;5089872;28;19920;-72
2020/12/04 08:04:19;;;;;;;32.35;13.50;;;;;;;2.50;65.42;99058.59;5090433;28;20067;-71
2020/12/04 08:06:46;;;;;;;28.45;14.65;;;;;;;2.53;65.39;99055.09;5088943;28;20136;-69
2020/12/04 08:09:15;;;;;;;31.73;14.88;;;;;;;2.58;65.26;99072.19;5089766;28;20109;-71
2020/12/04 08:11:51;;;;;;;21.60;12.38;;;;;;;2.63;65.12;99062.56;5089524;28;20044;-70
2020/12/04 08:14:23;;;;;;;21.67;10.65;;;;;;;2.66;65.11;99059.88;5090408;28;20132;-70
2020/12/04 08:16:53;;;;;;;26.00;12.75;;;;;;;2.71;64.97;99059.78;5090193;28;20469;-72
2020/12/04 08:19:23;;;;;;;24.60;13.05;;;;;;;2.77;65.02;99061.38;5090137;28;20048;-72
2020/12/04 08:21:57;;;;;;;26.67;15.05;;;;;;;2.79;64.84;99072.53;5077757;28;20114;-71
2020/12/04 08:24:26;;;;;;;30.38;13.90;;;;;;;2.82;64.70;99060.34;5089142;28;20080;-70
2020/12/04 08:27:03;;;;;;;21.73;10.85;;;;;;;2.86;64.63;99066.28;5091071;28;20449;-71
2020/12/04 08:29:30;;;;;;;30.80;13.43;;;;;;;2.90;64.50;99062.72;5093792;28;20083;-70
2020/12/04 08:32:07;;;;;;;33.88;17.38;;;;;;;2.89;64.63;99038.59;5093959;28;20079;-69
2020/12/04 08:34:34;;;;;;;18.92;10.23;;;;;;;2.93;64.45;99047.16;5092853;28;20527;-69
2020/12/04 08:37:02;;;;;;;38.88;16.40;;;;;;;2.93;64.50;99070.44;5093496;28;20079;-69
2020/12/04 08:39:41;;;;;;;32.33;15.25;;;;;;;2.96;64.49;99086.75;5093285;28;20480;-70
2020/12/04 08:42:18;;;;;;;23.38;11.60;;;;;;;3.02;64.48;99090.91;5093592;28;20125;-69
2020/12/04 08:44:55;;;;;;;28.92;15.27;;;;;;;3.01;64.27;99086.63;5093544;28;20120;-70
2020/12/04 08:47:33;;;;;;;22.90;11.18;;;;;;;3.00;64.53;99056.44;5093168;28;20048;-69
2020/12/04 08:50:07;;;;;;;28.27;14.70;;;;;;;3.00;64.52;99079.75;5092980;28;20056;-70
2020/12/04 08:52:48;;;;;;;29.45;15.85;;;;;;;3.02;64.59;99080.53;5073064;28;20048;-70
2020/12/04 08:55:17;;;;;;;32.37;14.63;;;;;;;3.00;64.36;99084.91;5080853;28;20471;-67
2020/12/04 08:57:44;;;;;;;31.52;15.82;;;;;;;3.02;64.40;99070.19;5093218;28;20534;-70
2020/12/04 09:00:13;;;;;;;27.88;11.82;;;;;;;2.99;64.41;99068.53;5092888;28;20059;-69
2020/12/04 09:02:40;;;;;;;36.95;16.40;;;;;;;3.00;64.32;99051.25;5093186;28;20455;-68
2020/12/04 09:05:09;;;;;;;29.70;14.50;;;;;;;3.00;64.72;99071.97;5093205;28;20089;-69
2020/12/04 09:07:36;;;;;;;27.35;13.52;;;;;;;3.01;64.57;99050.38;5093090;28;20044;-69
2020/12/04 09:10:03;;;;;;;37.08;17.25;;;;;;;2.99;64.80;99045.22;5091507;28;20426;-71
2020/12/04 09:12:31;;;;;;;29.77;13.38;;;;;;;2.99;64.62;99046.97;5091089;28;20048;-69
2020/12/04 09:14:57;;;;;;;32.60;17.15;;;;;;;3.03;64.60;99033.03;5086136;28;20098;-68
2020/12/04 09:17:23;;;;;;;37.13;17.75;;;;;;;3.06;64.78;99035.53;5088123;28;20082;-66
2020/12/04 09:19:49;;;;;;;24.90;11.48;;;;;;;3.10;64.57;99021.63;5085610;28;20083;-69
2020/12/04 09:22:16;;;;;;;25.58;13.00;;;;;;;3.12;64.72;99017.25;5093012;28;20109;-70
2020/12/04 09:24:43;;;;;;;31.70;14.55;;;;;;;3.14;64.72;99022.41;5092726;28;20076;-67
2020/12/04 09:27:09;;;;;;;32.08;17.08;;;;;;;3.19;64.57;99010.19;5092321;28;20519;-67
2020/12/04 09:29:37;;;;;;;30.50;13.35;;;;;;;3.23;64.47;99023.00;5088147;28;20076;-66
2020/12/04 09:32:11;;;;;;;18.38;10.75;;;;;;;3.26;64.32;99009.94;5081718;28;20048;-66
2020/12/04 09:34:38;;;;;;;26.13;13.48;;;;;;;3.29;64.42;99007.25;5075239;28;20546;-66
2020/12/04 09:37:13;;;;;;;28.83;13.70;;;;;;;3.35;64.07;98998.50;5089963;28;20084;-67
2020/12/04 09:39:39;;;;;;;31.90;14.38;;;;;;;3.34;64.18;98986.44;5090726;28;20519;-64
2020/12/04 09:42:07;;;;;;;28.67;12.27;;;;;;;3.37;64.05;98999.28;5092392;28;20137;-66
2020/12/04 09:44:33;;;;;;;28.10;13.35;;;;;;;3.40;64.17;98988.00;5091929;28;20549;-66
2020/12/04 09:47:01;;;;;;;29.65;14.02;;;;;;;3.44;63.90;99007.72;5092360;28;20491;-67
2020/12/04 09:49:27;;;;;;;20.73;11.50;;;;;;;3.46;63.99;99006.78;5091804;28;20516;-67
2020/12/04 09:51:54;;;;;;;18.70;10.45;;;;;;;3.49;63.88;98992.88;5092376;28;20076;-67
2020/12/04 09:54:21;;;;;;;35.03;17.15;;;;;;;3.58;63.73;99009.03;5091785;28;20105;-68
2020/12/04 09:56:47;;;;;;;37.35;15.07;;;;;;;3.64;63.64;98989.84;5091959;28;20105;-68
2020/12/04 09:59:14;;;;;;;36.45;16.35;;;;;;;3.72;63.46;98982.66;5092110;28;20570;-71
2020/12/04 10:01:40;;;;;;;24.48;12.65;;;;;;;3.79;63.55;98989.38;5091612;28;20407;-71
2020/12/04 10:04:07;;;;;;;30.95;14.15;;;;;;;3.81;63.27;99010.91;5092502;28;20052;-72
2020/12/04 10:06:34;;;;;;;32.65;13.07;;;;;;;3.84;63.23;98997.84;5091387;28;20064;-71
2020/12/04 10:09:00;;;;;;;29.38;15.38;;;;;;;3.88;63.38;98994.28;5092650;28;20075;-74
2020/12/04 10:11:26;;;;;;;23.75;11.55;;;;;;;3.95;63.32;98979.34;5091806;28;20107;-73
2020/12/04 10:13:52;;;;;;;33.10;17.90;;;;;;;3.98;62.86;98989.66;5092345;28;20075;-74
2020/12/04 10:16:19;;;;;;;24.83;13.05;;;;;;;4.05;62.68;98973.00;5092012;28;20056;-69
2020/12/04 10:18:45;;;;;;;22.88;12.52;;;;;;;4.04;62.63;99010.19;5091584;28;20076;-70
2020/12/04 10:21:12;;;;;;;23.25;11.38;;;;;;;4.09;62.47;98968.56;5092184;28;20406;-72
2020/12/04 10:23:38;;;;;;;21.40;11.45;;;;;;;4.11;62.63;98961.56;5092374;28;20074;-72
2020/12/04 10:26:04;;;;;;;26.67;14.43;;;;;;;4.16;62.35;98980.41;5091408;28;20079;-71
2020/12/04 10:28:32;;;;;;;38.33;16.45;;;;;;;4.16;62.71;98973.47;5092022;28;20414;-73
2020/12/04 10:30:59;;;;;;;28.02;13.68;;;;;;;4.19;62.57;98957.00;5091882;28;20048;-73
2020/12/04 10:33:28;;;;;;;24.25;11.48;;;;;;;4.21;62.47;98957.78;5092610;28;20036;-71
2020/12/04 10:35:54;;;;;;;32.17;15.63;;;;;;;4.24;62.36;98975.84;5097251;28;20044;-73
2020/12/04 10:38:23;;;;;;;31.88;16.20;;;;;;;4.27;62.42;98971.41;5095820;28;20094;-77
2020/12/04 10:40:51;;;;;;;30.55;14.73;;;;;;;4.32;62.40;98966.03;5091453;28;20418;-75
2020/12/04 10:43:17;;;;;;;30.05;14.07;;;;;;;4.39;61.94;98959.78;5086050;28;20124;-75
2020/12/04 10:45:44;;;;;;;27.33;12.30;;;;;;;4.43;62.27;98956.16;5090760;28;20062;-74
2020/12/04 10:48:11;;;;;;;24.63;13.93;;;;;;;4.46;61.84;98950.88;5090905;28;20051;-75
2020/12/04 10:50:37;;;;;;;35.97;14.43;;;;;;;4.52;61.85;98939.41;5090571;28;20056;-75
2020/12/04 10:53:03;;;;;;;21.48;11.15;;;;;;;4.56;61.96;98941.84;5091368;28;20048;-74
2020/12/04 10:55:31;;;;;;;29.63;14.15;;;;;;;4.61;61.81;98922.69;5091275;28;20388;-76
2020/12/04 10:57:58;;;;;;;30.73;16.25;;;;;;;4.62;61.50;98945.16;5091243;28;20059;-75
2020/12/04 11:00:24;;;;;;;26.42;13.85;;;;;;;4.61;61.77;98940.88;5091032;28;20545;-75
2020/12/04 11:02:56;;;;;;;24.08;12.38;;;;;;;4.63;61.66;98934.72;5091227;28;20044;-74
2020/12/04 11:05:36;;;;;;;24.85;13.60;;;;;;;4.69;61.48;98928.47;5091594;28;20108;-76
2020/12/04 11:08:02;;;;;;;15.20;9.45;;;;;;;4.65;61.41;98932.91;5091434;28;20048;-74
2020/12/04 11:10:29;;;;;;;36.50;16.48;;;;;;;4.63;61.87;98920.91;5090446;28;20050;-76
2020/12/04 11:12:56;;;;;;;25.17;13.50;;;;;;;4.70;61.74;98917.16;5090952;28;20036;-75
2020/12/04 11:15:23;;;;;;;25.05;12.15;;;;;;;4.77;61.53;98921.22;5090975;28;20093;-72
2020/12/04 11:17:52;;;;;;;26.10;14.13;;;;;;;4.85;61.43;98922.66;5090865;28;20139;-72
2020/12/04 11:20:18;;;;;;;29.10;14.38;;;;;;;4.89;61.39;98923.41;5090769;28;20036;-73
2020/12/04 11:22:45;;;;;;;31.30;14.70;;;;;;;4.91;61.32;98924.19;5090917;28;20051;-74
2020/12/04 11:25:11;;;;;;;28.65;14.13;;;;;;;4.92;61.32;98912.91;5090336;28;20048;-71
2020/12/04 11:27:42;;;;;;;22.58;12.25;;;;;;;4.92;61.08;98899.91;5090577;28;20499;-72
2020/12/04 11:30:13;;;;;;;29.48;15.50;;;;;;;4.87;61.07;98920.84;5090492;28;20052;-71
2020/12/04 11:32:40;;;;;;;28.02;13.38;;;;;;;4.87;61.13;98907.03;5090572;28;20412;-72